North Fond du Lac, Wisconsin
Current Conditions -  °F | °C
As of 9:53 AM on Friday 31 Oct 2014 (Local Time) from KFLD Reporting Station
Overcast Overcast  
Wind Chill: 22°   Ceiling: 3600
Heat Index: 35°   Visibility: 10mi
Dew Point: 21°   Wind: 29mph
Humidity: 57%   Direction: 360°N
Pressure: 30.27"   Gusts: 38mph
Location:  43.7898°N, 88.5291°W
Report Text: KFLD 311453Z AUTO 36025G33KT 10SM OVC036 02/M06 A3027 RMK AO2 PK WND 01034/1440 SLP257 T00171061 51033
Loading
Personal Weather Stations






























Interactive Weather Map
Tropical Storm Tracking
New forecast layout! Learn more

10-Day Weather Forecast

Advertisements
Track Severe Weather on mobile